Flanary, Kentucky
Current Conditions -  °F | °C
As of 6:55 PM on Friday 19 Dec 2014 (Local Time) from KPBX Reporting Station
Clear Clear  
Wind Chill: 22°   Ceiling: Unl
Heat Index: 29°   Visibility: 10mi
Dew Point: 23°   Wind: 7mph
Humidity: 78%   Direction: 20°NNE
Pressure: 30.23"   Gusts: NA
Location:  37.3644°N, 82.2792°W
Report Text: KPBX 192355Z AUTO 02006KT 10SM CLR M02/M05 A3023 RMK AO2 T10181051 10013 21018
Loading
Personal Weather Stations






























Interactive Weather Map New forecast layout! Learn more

10-Day Weather Forecast

Advertisements
Track Severe Weather on mobile